Airfield :







YOU CAN JOIN US ON...

 
LOGIN :

Register | Disclaimer

   EN    FR    IT 

 









Legend :    VFR   Marginal VFR   IFR   Intensive IFR   Very Intensive IFR
Visi :
Ceiling :
>= 8 km
>= 3000ft
5 to 8 km
1000 to 3000 ft
1500m to 5 km
500 to 1000 ft
800 to 1500m
200 to 500 ft
< 800m
< 200 ft
Symbols :   Thunderstorms  Fog  Heavy snow  Heavy precipitations  Wind > 20 kt






- Airport Elevation : 160 ft
- IATA code : YYR


CYYR - Goose Bay

CURRENT METAR :
  • 110742Z 29015G30KT 15SM VCSH BKN043 M11/M16 A2946 RMK SC6 PRESRR SLP980

EXPIRED METARs :
  • 110700Z 29024G37KT 12SM -SHSN DRSN OVC033 M09/M14 A2939 RMK SC8 PRESRR SLP957
  • 110600Z 28027G35KT 15SM FEW050 FEW075 M06/M11 A2932 RMK SC1AC2 PRESRR SLP934
  • 110500Z 29016G24KT 15SM -SHSN FEW021 BKN028 BKN035 M01/M04 A2923 RMK SC2SC3SC1 SLP902

TAF TAF CYYR
Valid from the 11 at 06:00 until the 12 at 06:00 UTC


110532Z 1106/1206 28015G30KT P6SM FEW020 BKN030
TEMPO 1106/1114 P6SM -SHSN
BECMG 1111/1113 26023G38KT
FM111400 26023G38KT P6SM FEW040
BECMG 1122/1124 26018G30KT
BECMG 1201/1203 26015KT RMK NXT FCST BY 111200Z



MET'MAP, your aeronautical weather chart ! - Copyright ORBIFLY December 2007 - Disclaimer

ORBIFLY MET'MAP TEAM :

Programming & Development : Alexandra Zaïnal
Concept & original design : Baudouin d'Aumeries
Assistance for programming : Marc-Olivier Méhu
Technical & hardware support : Manuel Goepfert

Contact : metmap@orbifly.com




SOURCES & CREDITS :

   NOAA